Time;durP1;ratioP1;P1;durP2;ratioP2;P2;SDS_P1;SDS_P2;PMS_P1;PMS_P2;Temp;Humidity;BMP_temperature;BMP_pressure;BME280_temperature;BME280_humidity;BME280_pressure;Samples;Min_cycle;Max_cycle;Signal;HPM_P1;HPM_P2
2022/11/04 00:01:23;;;;;;;21.10;12.20;;;;;;;6.64;74.92;99026.36;436043;1284;142958;-71
2022/11/04 00:42:39;;;;;;;18.00;11.30;;;;;;;6.66;75.86;98987.95;435463;1284;197772;-71
2022/11/04 00:52:44;;;;;;;15.80;9.50;;;;;;;6.66;75.92;98964.32;435968;1283;142419;-70
2022/11/04 01:02:50;;;;;;;15.50;10.30;;;;;;;6.58;76.23;98952.23;435243;1290;141625;-70
2022/11/04 01:12:56;;;;;;;15.40;9.60;;;;;;;6.54;76.62;98945.67;435986;1289;142055;-70
2022/11/04 01:23:01;;;;;;;13.50;10.10;;;;;;;6.58;76.79;98936.39;435894;1284;142049;-70
2022/11/04 01:33:07;;;;;;;15.80;10.90;;;;;;;6.58;77.02;98934.67;435179;1285;142088;-70
2022/11/04 01:43:16;;;;;;;13.40;9.70;;;;;;;6.57;77.29;98925.99;435935;1285;142528;-69
2022/11/04 01:53:26;;;;;;;16.30;9.90;;;;;;;6.62;77.49;98920.90;435962;1285;145176;-70
2022/11/04 02:03:36;;;;;;;17.80;9.90;;;;;;;6.57;77.75;98898.21;435542;1291;210625;-70
2022/11/04 02:13:42;;;;;;;11.40;9.90;;;;;;;6.59;77.95;98882.80;435869;1284;142131;-71
2022/11/04 02:24:14;;;;;;;16.80;11.00;;;;;;;6.63;78.21;98872.10;435214;1279;142103;-70
2022/11/04 02:34:29;;;;;;;15.90;10.70;;;;;;;6.67;78.25;98864.05;435816;1283;142902;-71
2022/11/04 02:44:39;;;;;;;13.50;9.80;;;;;;;6.68;78.47;98849.39;435143;1283;143000;-71
2022/11/04 02:54:50;;;;;;;17.50;10.60;;;;;;;6.69;78.72;98831.73;435919;1284;142667;-69
2022/11/04 03:04:57;;;;;;;13.20;10.10;;;;;;;6.71;78.97;98803.48;435943;1290;142511;-71
2022/11/04 03:15:03;;;;;;;;;;;;;;;6.73;79.07;98807.48;435222;1283;142967;-70
2022/11/04 03:25:10;;;;;;;16.80;10.80;;;;;;;6.69;79.24;98808.46;435791;1284;128721;-70
2022/11/04 03:35:17;;;;;;;15.80;11.20;;;;;;;6.59;79.82;98806.41;435855;1290;142183;-69
2022/11/04 03:45:23;;;;;;;17.70;11.40;;;;;;;6.55;80.35;98789.46;435155;1283;142630;-70
2022/11/04 03:55:39;;;;;;;16.00;11.40;;;;;;;6.48;80.81;98785.36;434256;1290;145017;-70
2022/11/04 04:05:51;;;;;;;17.30;11.50;;;;;;;6.46;81.35;98787.59;435206;1285;141844;-71
2022/11/04 04:16:00;;;;;;;20.60;12.70;;;;;;;6.53;81.64;98776.88;436025;1283;142777;-71
2022/11/04 04:36:39;;;;;;;17.90;11.60;;;;;;;6.64;82.18;98767.52;435403;1290;211673;-71
2022/11/04 04:46:47;;;;;;;16.50;12.30;;;;;;;6.69;82.53;98764.95;435911;1283;142614;-70
2022/11/04 04:56:51;;;;;;;;;;;;;;;6.70;82.66;98764.20;435226;1290;160721;-69
2022/11/04 05:06:56;;;;;;;13.40;10.70;;;;;;;6.70;83.21;98759.69;436115;1292;128321;-69
2022/11/04 05:17:02;;;;;;;19.40;13.20;;;;;;;6.72;83.54;98734.48;435823;1283;143036;-70
2022/11/04 05:27:08;;;;;;;20.40;13.40;;;;;;;6.77;84.29;98729.88;434976;1283;142873;-71
2022/11/04 05:37:13;;;;;;;19.40;14.30;;;;;;;6.80;84.50;98719.93;426572;1280;145427;-71
2022/11/04 05:47:19;;;;;;;19.90;13.30;;;;;;;6.82;84.81;98720.70;435970;1290;142743;-70
2022/11/04 05:57:24;;;;;;;17.60;12.70;;;;;;;6.84;85.23;98724.59;435001;1286;185722;-68
2022/11/04 06:07:30;;;;;;;19.10;13.00;;;;;;;6.87;85.59;98729.60;435389;1284;142788;-70
2022/11/04 06:17:36;;;;;;;19.80;14.20;;;;;;;6.91;85.89;98734.27;435003;1289;143536;-69
2022/11/04 06:27:42;;;;;;;20.00;14.10;;;;;;;6.95;86.12;98742.52;435781;1284;143314;-70
2022/11/04 06:37:48;;;;;;;18.90;13.60;;;;;;;6.99;86.20;98745.37;435813;1290;185994;-69
2022/11/04 06:47:53;;;;;;;22.60;13.40;;;;;;;7.07;86.03;98730.61;435140;1283;142573;-69
2022/11/04 06:57:59;;;;;;;20.10;14.50;;;;;;;7.19;86.18;98728.31;435665;1277;191601;-70
2022/11/04 07:08:05;;;;;;;19.30;14.50;;;;;;;7.33;85.95;98719.23;435974;1285;142314;-70
2022/11/04 07:18:11;;;;;;;16.30;13.60;;;;;;;7.49;85.72;98715.95;435240;1285;143248;-70
2022/11/04 07:28:17;;;;;;;18.40;13.20;;;;;;;7.61;85.49;98715.00;435960;1283;142770;-70
2022/11/04 07:38:22;;;;;;;18.10;13.40;;;;;;;7.71;85.31;98712.58;435997;1290;142545;-71
2022/11/04 07:48:28;;;;;;;15.60;12.50;;;;;;;7.73;85.14;98695.55;435377;1283;207579;-71
2022/11/04 07:58:34;;;;;;;18.90;14.00;;;;;;;7.89;85.20;98689.66;435972;1284;142028;-71
2022/11/04 08:08:41;;;;;;;20.50;14.90;;;;;;;7.96;84.89;98677.34;435247;1284;143379;-71
2022/11/04 08:18:47;;;;;;;18.30;13.00;;;;;;;8.16;84.55;98669.16;435994;1282;142533;-69
2022/11/04 08:28:53;;;;;;;16.20;13.80;;;;;;;8.46;84.08;98663.63;435972;1290;142535;-70
2022/11/04 08:38:59;;;;;;;18.20;12.50;;;;;;;8.62;83.50;98658.39;435235;1285;144729;-69
2022/11/04 08:49:10;;;;;;;15.60;11.30;;;;;;;8.71;82.70;98655.63;435926;1283;145950;-69
2022/11/04 08:59:23;;;;;;;13.90;11.80;;;;;;;8.74;82.63;98660.13;436027;1283;141993;-70
2022/11/04 09:09:29;;;;;;;16.80;12.50;;;;;;;8.73;82.39;98654.30;435478;1277;199438;-71
2022/11/04 09:19:35;;;;;;;16.00;13.70;;;;;;;8.68;82.26;98657.95;436033;1283;142677;-70
2022/11/04 09:29:41;;;;;;;17.00;11.70;;;;;;;8.73;82.07;98654.27;435277;1284;144666;-70
2022/11/04 09:39:46;;;;;;;16.70;13.30;;;;;;;8.86;82.25;98634.50;435936;1283;142527;-71
2022/11/04 09:50:00;;;;;;;15.00;12.30;;;;;;;9.19;82.03;98624.64;435941;1283;142465;-70
2022/11/04 10:00:14;;;;;;;17.40;13.10;;;;;;;9.28;81.18;98617.30;435279;1283;143817;-71
2022/11/04 10:10:26;;;;;;;16.60;12.70;;;;;;;9.46;80.62;98607.46;433858;1285;142839;-69
2022/11/04 10:20:45;;;;;;;20.70;12.50;;;;;;;9.61;79.96;98608.41;435257;1284;143288;-69
2022/11/04 10:30:52;;;;;;;13.60;11.20;;;;;;;9.71;79.85;98612.06;424241;1283;142565;-70
2022/11/04 10:40:58;;;;;;;19.80;12.80;;;;;;;9.93;79.40;98601.81;435936;1283;144491;-70
2022/11/04 10:51:11;;;;;;;15.80;12.40;;;;;;;10.41;78.79;98598.28;435219;1277;142415;-70
2022/11/04 11:01:28;;;;;;;15.60;11.50;;;;;;;10.87;77.78;98587.14;426378;1277;147151;-70
2022/11/04 11:11:40;;;;;;;11.10;9.80;;;;;;;11.10;76.78;98579.30;435205;1283;143835;-71
2022/11/04 11:21:48;;;;;;;14.40;10.10;;;;;;;11.07;76.29;98572.20;436012;1277;143298;-70
2022/11/04 11:31:56;;;;;;;14.10;11.40;;;;;;;11.16;76.02;98566.02;436036;1276;142937;-70
2022/11/04 11:42:06;;;;;;;14.20;10.50;;;;;;;11.10;75.80;98564.98;435293;1284;143599;-69
2022/11/04 11:52:32;;;;;;;14.90;9.90;;;;;;;11.10;75.59;98551.84;436006;1282;146993;-71
2022/11/04 12:02:45;;;;;;;14.50;11.70;;;;;;;11.01;75.66;98547.80;435246;1283;143198;-69
2022/11/04 12:13:03;;;;;;;17.20;12.00;;;;;;;10.85;75.83;98544.55;435996;1290;143257;-70
2022/11/04 12:23:18;;;;;;;12.70;10.70;;;;;;;10.65;76.41;98535.54;435999;1284;142882;-70
2022/11/04 12:33:35;;;;;;;15.40;11.70;;;;;;;10.56;76.94;98536.95;431819;1284;142753;-70
2022/11/04 12:43:50;;;;;;;16.20;11.60;;;;;;;10.53;77.29;98537.73;435980;1283;143304;-70
2022/11/04 12:54:10;;;;;;;14.20;11.80;;;;;;;10.58;77.43;98530.98;433331;1284;142679;-70
2022/11/04 13:04:20;;;;;;;14.50;11.10;;;;;;;10.77;77.46;98525.63;435982;1283;142351;-70
2022/11/04 13:14:29;;;;;;;17.20;11.50;;;;;;;10.89;77.10;98528.66;422178;1277;144546;-70
2022/11/04 13:24:39;;;;;;;15.70;10.90;;;;;;;10.98;76.73;98519.19;435612;1283;198532;-70
2022/11/04 13:34:54;;;;;;;16.20;11.60;;;;;;;11.01;76.57;98519.80;435929;1284;142988;-70
2022/11/04 13:45:10;;;;;;;13.00;10.60;;;;;;;11.01;76.20;98517.02;435175;1277;143096;-70
2022/11/04 13:55:20;;;;;;;12.60;9.70;;;;;;;10.98;76.07;98516.04;436014;1284;147221;-70
2022/11/04 14:05:46;;;;;;;13.20;10.20;;;;;;;10.97;76.25;98515.59;436018;1277;142632;-68
2022/11/04 14:16:02;;;;;;;16.70;11.80;;;;;;;10.95;76.41;98515.08;435675;1284;199605;-70
2022/11/04 14:26:10;;;;;;;12.30;10.00;;;;;;;10.89;76.55;98524.60;435997;1291;143942;-68
2022/11/04 14:36:17;;;;;;;;;;;;;;;10.86;76.88;98534.14;435233;1281;142777;-69
2022/11/04 14:46:26;;;;;;;17.80;13.40;;;;;;;10.77;77.28;98532.05;436100;1283;130727;-70
2022/11/04 14:56:32;;;;;;;17.90;13.40;;;;;;;10.66;77.71;98545.75;435280;1288;168163;-69
2022/11/04 15:06:38;;;;;;;16.90;12.10;;;;;;;10.54;78.02;98549.34;436020;1277;143078;-69
2022/11/04 15:17:01;;;;;;;18.30;12.20;;;;;;;10.42;78.38;98554.30;436074;1283;145041;-70
2022/11/04 15:27:13;;;;;;;18.80;13.00;;;;;;;10.33;78.56;98554.64;435318;1283;145894;-70
2022/11/04 15:37:20;;;;;;;19.70;12.70;;;;;;;10.25;78.75;98554.22;436001;1284;143231;-69
2022/11/04 15:47:28;;;;;;;19.30;13.40;;;;;;;10.21;78.86;98551.41;434871;1284;144128;-70
2022/11/04 15:57:38;;;;;;;23.50;15.10;;;;;;;10.16;78.90;98540.21;435602;1283;199999;-70
2022/11/04 16:07:46;;;;;;;21.30;16.20;;;;;;;10.13;78.91;98533.52;435919;1277;142257;-69
2022/11/04 16:17:52;;;;;;;18.10;14.00;;;;;;;10.09;78.94;98539.16;435009;1284;163316;-62
2022/11/04 16:27:58;;;;;;;19.50;14.50;;;;;;;10.08;79.08;98535.27;435861;1281;143529;-63
2022/11/04 16:38:05;;;;;;;20.30;15.40;;;;;;;10.08;79.16;98531.61;435812;1276;143263;-63
2022/11/04 16:48:15;;;;;;;21.80;14.70;;;;;;;10.07;79.15;98532.05;435069;1283;144402;-63
2022/11/04 16:58:21;;;;;;;19.00;15.20;;;;;;;10.06;79.14;98528.58;435649;1285;144044;-63
2022/11/04 17:08:27;;;;;;;24.60;16.80;;;;;;;10.05;79.39;98527.28;435627;1271;143613;-65
2022/11/04 17:18:34;;;;;;;21.60;15.80;;;;;;;10.03;79.46;98523.05;435515;1277;143874;-63
2022/11/04 17:28:40;;;;;;;20.90;14.30;;;;;;;10.00;79.72;98516.48;432514;1284;141935;-63
2022/11/04 17:38:47;;;;;;;19.70;15.60;;;;;;;9.98;79.93;98518.02;433717;1281;195488;-64
2022/11/04 17:48:52;;;;;;;20.20;15.70;;;;;;;9.92;80.15;98502.77;435951;1281;144036;-64
2022/11/04 17:59:00;;;;;;;18.50;13.50;;;;;;;9.85;80.56;98504.02;435856;1278;142990;-64
2022/11/04 18:09:09;;;;;;;16.90;14.30;;;;;;;9.80;80.64;98504.00;435193;1285;145618;-64
2022/11/04 18:19:17;;;;;;;18.10;13.40;;;;;;;9.79;80.80;98498.36;435849;1283;142957;-64
2022/11/04 18:29:22;;;;;;;19.20;13.80;;;;;;;9.75;81.05;98481.02;435936;1289;143001;-64
2022/11/04 18:39:28;;;;;;;15.10;11.90;;;;;;;9.67;81.28;98473.92;435478;1284;212026;-63
2022/11/04 18:49:34;;;;;;;18.70;12.80;;;;;;;9.62;81.13;98466.80;435831;1290;142808;-64
2022/11/04 18:59:40;;;;;;;16.50;12.70;;;;;;;9.60;80.90;98470.33;435068;1283;142992;-62
2022/11/04 19:09:46;;;;;;;24.30;14.00;;;;;;;9.58;80.64;98463.80;435970;1290;196017;-63
2022/11/04 19:19:52;;;;;;;15.50;10.50;;;;;;;9.55;80.25;98460.23;436010;1284;141354;-63
2022/11/04 19:29:58;;;;;;;17.30;13.40;;;;;;;9.51;80.15;98465.90;435214;1289;143668;-63
2022/11/04 19:40:05;;;;;;;15.40;11.50;;;;;;;9.48;79.88;98458.98;435945;1287;142524;-63
2022/11/04 19:50:11;;;;;;;18.60;12.90;;;;;;;9.44;79.71;98463.67;435980;1290;144023;-63
2022/11/04 20:00:18;;;;;;;19.40;12.70;;;;;;;9.38;79.67;98467.59;435246;1283;143441;-63
2022/11/04 20:10:24;;;;;;;13.70;11.10;;;;;;;9.32;79.79;98467.35;436011;1285;143254;-64
2022/11/04 20:20:30;;;;;;;17.90;12.40;;;;;;;9.26;79.79;98465.33;435303;1277;143093;-63
2022/11/04 20:30:38;;;;;;;17.40;13.10;;;;;;;9.22;80.04;98483.29;436028;1288;142831;-63
2022/11/04 20:40:46;;;;;;;16.90;12.90;;;;;;;9.18;80.38;98494.77;435991;1284;145530;-64
2022/11/04 20:50:51;;;;;;;16.50;12.00;;;;;;;9.14;80.35;98484.44;435206;1289;142165;-63
2022/11/04 21:01:01;;;;;;;19.20;13.70;;;;;;;9.09;80.61;98488.15;435936;1289;143152;-62
2022/11/04 21:11:08;;;;;;;19.50;15.20;;;;;;;9.00;80.88;98488.59;435973;1291;141794;-63
2022/11/04 21:21:16;;;;;;;18.40;15.50;;;;;;;8.93;81.16;98490.52;435226;1290;142631;-63
2022/11/04 21:31:22;;;;;;;17.00;12.80;;;;;;;8.89;81.24;98491.17;435975;1286;142495;-63
2022/11/04 21:41:32;;;;;;;19.80;15.70;;;;;;;8.83;81.48;98491.76;435425;1281;144607;-65
2022/11/04 21:51:38;;;;;;;24.70;15.10;;;;;;;8.74;82.20;98483.59;435893;1284;142205;-63
2022/11/04 22:01:44;;;;;;;18.40;14.70;;;;;;;8.64;82.61;98500.84;436009;1283;141843;-64
2022/11/04 22:11:50;;;;;;;20.00;14.60;;;;;;;8.52;83.38;98499.62;419689;1280;141786;-65
2022/11/04 22:21:56;;;;;;;18.10;14.60;;;;;;;8.40;84.15;98496.30;419716;1281;141852;-65
2022/11/04 22:32:03;;;;;;;18.50;15.10;;;;;;;8.28;85.46;98482.15;419644;1285;140995;-64
2022/11/04 22:42:09;;;;;;;22.80;16.60;;;;;;;8.18;86.82;98490.89;418971;1286;142982;-64
2022/11/04 22:52:15;;;;;;;20.20;14.50;;;;;;;8.11;87.94;98494.33;422973;1288;142887;-63
2022/11/04 23:02:21;;;;;;;23.70;15.70;;;;;;;8.04;89.08;98496.75;435940;1283;140964;-64
2022/11/04 23:33:14;;;;;;;24.30;17.80;;;;;;;7.97;91.82;98496.36;435110;1286;142659;-64
2022/11/04 23:43:20;;;;;;;22.50;17.50;;;;;;;7.93;92.61;98500.80;435630;1290;141746;-64
